sensor_id;sensor_type;location;lat;lon;timestamp;pressure;altitude;pressure_sealevel;temperature;humidity
21838;BME280;11081;45.946;6.140;2023-03-04T00:00:32;95440.44;;;5.08;76.67
21838;BME280;11081;45.946;6.140;2023-03-04T00:03:00;95445.59;;;5.08;77.13
21838;BME280;11081;45.946;6.140;2023-03-04T00:05:28;95441.41;;;4.92;77.90
21838;BME280;11081;45.946;6.140;2023-03-04T00:07:56;95444.69;;;4.71;79.67
21838;BME280;11081;45.946;6.140;2023-03-04T00:10:24;95441.47;;;4.69;79.07
21838;BME280;11081;45.946;6.140;2023-03-04T00:12:52;95442.03;;;4.79;79.41
21838;BME280;11081;45.946;6.140;2023-03-04T00:15:22;95439.97;;;4.89;79.14
21838;BME280;11081;45.946;6.140;2023-03-04T00:17:50;95443.00;;;4.93;78.73
21838;BME280;11081;45.946;6.140;2023-03-04T00:20:18;95450.59;;;4.95;77.73
21838;BME280;11081;45.946;6.140;2023-03-04T00:22:45;95448.00;;;4.95;78.91
21838;BME280;11081;45.946;6.140;2023-03-04T00:25:14;95445.78;;;4.92;79.54
21838;BME280;11081;45.946;6.140;2023-03-04T00:27:42;95439.34;;;4.87;79.69
21838;BME280;11081;45.946;6.140;2023-03-04T00:30:10;95440.97;;;4.88;78.82
21838;BME280;11081;45.946;6.140;2023-03-04T00:32:39;95448.16;;;4.78;79.82
21838;BME280;11081;45.946;6.140;2023-03-04T00:35:08;95446.50;;;4.85;79.37
21838;BME280;11081;45.946;6.140;2023-03-04T00:37:36;95448.78;;;4.95;78.98
21838;BME280;11081;45.946;6.140;2023-03-04T00:40:05;95443.91;;;5.00;78.11
21838;BME280;11081;45.946;6.140;2023-03-04T00:42:33;95449.25;;;4.99;78.13
21838;BME280;11081;45.946;6.140;2023-03-04T00:45:01;95447.31;;;5.01;78.33
21838;BME280;11081;45.946;6.140;2023-03-04T00:47:29;95444.72;;;5.01;78.45
21838;BME280;11081;45.946;6.140;2023-03-04T00:49:58;95450.16;;;5.06;78.59
21838;BME280;11081;45.946;6.140;2023-03-04T00:52:26;95449.16;;;5.07;78.22
21838;BME280;11081;45.946;6.140;2023-03-04T00:54:54;95448.63;;;4.97;79.10
21838;BME280;11081;45.946;6.140;2023-03-04T00:57:22;95442.19;;;4.93;78.32
21838;BME280;11081;45.946;6.140;2023-03-04T00:59:50;95445.03;;;4.98;79.03
21838;BME280;11081;45.946;6.140;2023-03-04T01:02:18;95450.50;;;5.03;78.95
21838;BME280;11081;45.946;6.140;2023-03-04T01:04:46;95455.50;;;5.04;78.12
21838;BME280;11081;45.946;6.140;2023-03-04T01:07:15;95452.75;;;5.06;78.87
21838;BME280;11081;45.946;6.140;2023-03-04T01:09:43;95444.00;;;5.07;78.86
21838;BME280;11081;45.946;6.140;2023-03-04T01:12:11;95445.16;;;5.04;78.97
21838;BME280;11081;45.946;6.140;2023-03-04T01:14:39;95438.81;;;5.07;78.43
21838;BME280;11081;45.946;6.140;2023-03-04T01:17:07;95441.16;;;5.02;77.76
21838;BME280;11081;45.946;6.140;2023-03-04T01:19:35;95435.00;;;5.03;78.34
21838;BME280;11081;45.946;6.140;2023-03-04T01:22:03;95434.44;;;5.07;78.72
21838;BME280;11081;45.946;6.140;2023-03-04T01:24:32;95433.66;;;5.07;78.08
21838;BME280;11081;45.946;6.140;2023-03-04T01:27:00;95429.47;;;5.06;78.27
21838;BME280;11081;45.946;6.140;2023-03-04T01:29:28;95429.91;;;5.09;78.02
21838;BME280;11081;45.946;6.140;2023-03-04T01:31:56;95428.84;;;5.04;77.77
21838;BME280;11081;45.946;6.140;2023-03-04T01:34:24;95424.91;;;5.08;77.95
21838;BME280;11081;45.946;6.140;2023-03-04T01:36:52;95423.47;;;4.90;78.38
21838;BME280;11081;45.946;6.140;2023-03-04T01:39:21;95417.06;;;4.86;78.70
21838;BME280;11081;45.946;6.140;2023-03-04T01:41:51;95420.63;;;4.85;79.98
21838;BME280;11081;45.946;6.140;2023-03-04T01:44:19;95413.50;;;4.87;78.96
21838;BME280;11081;45.946;6.140;2023-03-04T01:46:51;95411.19;;;4.93;79.35
21838;BME280;11081;45.946;6.140;2023-03-04T01:49:20;95416.28;;;5.01;78.64
21838;BME280;11081;45.946;6.140;2023-03-04T01:51:50;95410.13;;;5.02;77.88
21838;BME280;11081;45.946;6.140;2023-03-04T01:54:20;95411.34;;;5.06;78.75
21838;BME280;11081;45.946;6.140;2023-03-04T01:56:51;95410.00;;;5.10;78.42
21838;BME280;11081;45.946;6.140;2023-03-04T01:59:21;95410.81;;;5.10;77.90
21838;BME280;11081;45.946;6.140;2023-03-04T02:01:52;95405.81;;;5.09;78.69
21838;BME280;11081;45.946;6.140;2023-03-04T02:04:21;95405.44;;;5.12;78.04
21838;BME280;11081;45.946;6.140;2023-03-04T02:06:51;95392.34;;;5.13;77.42
21838;BME280;11081;45.946;6.140;2023-03-04T02:09:20;95405.44;;;5.12;77.99
21838;BME280;11081;45.946;6.140;2023-03-04T02:11:48;95397.69;;;5.12;77.37
21838;BME280;11081;45.946;6.140;2023-03-04T02:14:19;95397.06;;;5.10;77.54
21838;BME280;11081;45.946;6.140;2023-03-04T02:16:48;95396.72;;;5.13;78.08
21838;BME280;11081;45.946;6.140;2023-03-04T02:19:22;95396.72;;;5.13;77.36
21838;BME280;11081;45.946;6.140;2023-03-04T02:21:55;95389.56;;;5.15;77.66
21838;BME280;11081;45.946;6.140;2023-03-04T02:24:28;95386.00;;;5.16;77.83
21838;BME280;11081;45.946;6.140;2023-03-04T02:26:58;95389.56;;;5.15;77.46
21838;BME280;11081;45.946;6.140;2023-03-04T02:29:27;95388.94;;;5.13;78.41
21838;BME280;11081;45.946;6.140;2023-03-04T02:31:55;95387.16;;;5.13;78.36
21838;BME280;11081;45.946;6.140;2023-03-04T02:34:26;95396.34;;;5.16;77.91
21838;BME280;11081;45.946;6.140;2023-03-04T02:36:56;95381.63;;;5.16;77.56
21838;BME280;11081;45.946;6.140;2023-03-04T02:39:30;95386.63;;;5.18;77.57
21838;BME280;11081;45.946;6.140;2023-03-04T02:42:01;95399.03;;;5.08;77.95
21838;BME280;11081;45.946;6.140;2023-03-04T02:44:32;95390.13;;;4.66;79.97
21838;BME280;11081;45.946;6.140;2023-03-04T02:47:02;95381.56;;;4.51;79.88
21838;BME280;11081;45.946;6.140;2023-03-04T02:49:32;95386.84;;;4.72;78.54
21838;BME280;11081;45.946;6.140;2023-03-04T02:52:03;95390.50;;;4.93;78.08
21838;BME280;11081;45.946;6.140;2023-03-04T02:54:32;95391.03;;;5.03;77.39
21838;BME280;11081;45.946;6.140;2023-03-04T02:57:04;95381.91;;;5.07;78.18
21838;BME280;11081;45.946;6.140;2023-03-04T02:59:35;95379.94;;;5.09;77.76
21838;BME280;11081;45.946;6.140;2023-03-04T03:02:05;95390.13;;;5.10;77.89
21838;BME280;11081;45.946;6.140;2023-03-04T03:04:35;95387.97;;;5.14;77.87
21838;BME280;11081;45.946;6.140;2023-03-04T03:07:07;95383.16;;;5.11;77.49
21838;BME280;11081;45.946;6.140;2023-03-04T03:09:35;95381.56;;;5.10;77.96
21838;BME280;11081;45.946;6.140;2023-03-04T03:12:05;95382.91;;;5.06;77.38
21838;BME280;11081;45.946;6.140;2023-03-04T03:14:33;95377.81;;;4.98;78.18
21838;BME280;11081;45.946;6.140;2023-03-04T03:17:03;95378.03;;;4.81;78.26
21838;BME280;11081;45.946;6.140;2023-03-04T03:19:31;95370.28;;;4.81;78.26
21838;BME280;11081;45.946;6.140;2023-03-04T03:22:02;95374.97;;;4.93;78.69
21838;BME280;11081;45.946;6.140;2023-03-04T03:24:31;95372.63;;;4.98;78.21
21838;BME280;11081;45.946;6.140;2023-03-04T03:26:58;95366.78;;;5.04;77.26
21838;BME280;11081;45.946;6.140;2023-03-04T03:29:28;95369.97;;;5.06;77.66
21838;BME280;11081;45.946;6.140;2023-03-04T03:31:57;95372.31;;;5.01;77.36
21838;BME280;11081;45.946;6.140;2023-03-04T03:34:25;95371.41;;;4.94;77.59
21838;BME280;11081;45.946;6.140;2023-03-04T03:36:53;95372.56;;;4.91;78.15
21838;BME280;11081;45.946;6.140;2023-03-04T03:39:21;95375.97;;;4.92;77.74
21838;BME280;11081;45.946;6.140;2023-03-04T03:41:49;95381.19;;;4.98;78.09
21838;BME280;11081;45.946;6.140;2023-03-04T03:44:17;95383.34;;;4.95;78.06
21838;BME280;11081;45.946;6.140;2023-03-04T03:46:46;95382.97;;;4.98;78.02
21838;BME280;11081;45.946;6.140;2023-03-04T03:49:14;95377.81;;;4.98;77.42
21838;BME280;11081;45.946;6.140;2023-03-04T03:51:42;95373.91;;;5.02;78.03
21838;BME280;11081;45.946;6.140;2023-03-04T03:54:10;95387.63;;;5.02;77.32
21838;BME280;11081;45.946;6.140;2023-03-04T03:56:38;95385.22;;;4.71;78.27
21838;BME280;11081;45.946;6.140;2023-03-04T03:59:06;95386.13;;;4.49;79.39
21838;BME280;11081;45.946;6.140;2023-03-04T04:01:34;95380.97;;;4.64;79.64
21838;BME280;11081;45.946;6.140;2023-03-04T04:04:04;95387.47;;;4.74;78.32
21838;BME280;11081;45.946;6.140;2023-03-04T04:06:32;95386.41;;;4.83;77.93
21838;BME280;11081;45.946;6.140;2023-03-04T04:09:00;95384.69;;;4.90;78.12
21838;BME280;11081;45.946;6.140;2023-03-04T04:11:28;95384.94;;;4.96;77.88
21838;BME280;11081;45.946;6.140;2023-03-04T04:13:56;95387.16;;;4.99;77.40
21838;BME280;11081;45.946;6.140;2023-03-04T04:16:24;95380.69;;;5.03;77.47
21838;BME280;11081;45.946;6.140;2023-03-04T04:18:52;95381.91;;;5.07;78.06
21838;BME280;11081;45.946;6.140;2023-03-04T04:21:21;95376.75;;;5.07;78.25
21838;BME280;11081;45.946;6.140;2023-03-04T04:23:49;95376.75;;;5.07;77.89
21838;BME280;11081;45.946;6.140;2023-03-04T04:26:17;95386.56;;;4.97;78.17
21838;BME280;11081;45.946;6.140;2023-03-04T04:28:45;95392.91;;;4.65;79.34
21838;BME280;11081;45.946;6.140;2023-03-04T04:31:13;95389.69;;;4.63;79.89
21838;BME280;11081;45.946;6.140;2023-03-04T04:33:41;95392.25;;;4.77;79.58
21838;BME280;11081;45.946;6.140;2023-03-04T04:36:12;95388.00;;;4.84;78.86
21838;BME280;11081;45.946;6.140;2023-03-04T04:38:42;95391.72;;;4.97;78.47
21838;BME280;11081;45.946;6.140;2023-03-04T04:41:18;95394.50;;;4.95;77.73
21838;BME280;11081;45.946;6.140;2023-03-04T04:43:46;95393.00;;;5.01;78.23
21838;BME280;11081;45.946;6.140;2023-03-04T04:46:15;95391.84;;;5.03;78.67
21838;BME280;11081;45.946;6.140;2023-03-04T04:48:43;95393.25;;;5.06;77.60
21838;BME280;11081;45.946;6.140;2023-03-04T04:51:12;95399.03;;;5.08;77.54
21838;BME280;11081;45.946;6.140;2023-03-04T04:53:41;95401.00;;;5.06;78.48
21838;BME280;11081;45.946;6.140;2023-03-04T04:56:11;95402.25;;;5.10;78.15
21838;BME280;11081;45.946;6.140;2023-03-04T04:58:39;95396.28;;;5.09;78.55
21838;BME280;11081;45.946;6.140;2023-03-04T05:01:08;95393.94;;;5.00;77.97
21838;BME280;11081;45.946;6.140;2023-03-04T05:03:37;95391.72;;;4.97;77.86
21838;BME280;11081;45.946;6.140;2023-03-04T05:06:07;95389.25;;;4.88;78.49
21838;BME280;11081;45.946;6.140;2023-03-04T05:08:37;95380.50;;;4.89;78.50
21838;BME280;11081;45.946;6.140;2023-03-04T05:11:07;95390.50;;;4.93;78.96
21838;BME280;11081;45.946;6.140;2023-03-04T05:13:36;95388.53;;;4.95;77.89
21838;BME280;11081;45.946;6.140;2023-03-04T05:16:04;95386.84;;;5.02;77.47
21838;BME280;11081;45.946;6.140;2023-03-04T05:18:33;95378.09;;;5.03;77.36
21838;BME280;11081;45.946;6.140;2023-03-04T05:21:02;95385.94;;;5.09;76.54
21838;BME280;11081;45.946;6.140;2023-03-04T05:23:32;95379.22;;;5.15;77.42
21838;BME280;11081;45.946;6.140;2023-03-04T05:26:01;95380.03;;;5.15;76.71
21838;BME280;11081;45.946;6.140;2023-03-04T05:28:31;95379.22;;;5.15;77.49
21838;BME280;11081;45.946;6.140;2023-03-04T05:30:59;95383.16;;;5.11;78.25
21838;BME280;11081;45.946;6.140;2023-03-04T05:33:27;95383.53;;;5.08;77.71
21838;BME280;11081;45.946;6.140;2023-03-04T05:35:56;95388.34;;;5.11;78.05
21838;BME280;11081;45.946;6.140;2023-03-04T05:38:24;95384.75;;;5.12;78.04
21838;BME280;11081;45.946;6.140;2023-03-04T05:40:56;95377.00;;;5.12;78.25
21838;BME280;11081;45.946;6.140;2023-03-04T05:43:25;95375.22;;;5.12;76.98
21838;BME280;11081;45.946;6.140;2023-03-04T05:45:54;95377.06;;;5.18;76.25
21838;BME280;11081;45.946;6.140;2023-03-04T05:48:23;95385.56;;;5.12;74.84
21838;BME280;11081;45.946;6.140;2023-03-04T05:50:54;95386.72;;;5.10;74.33
21838;BME280;11081;45.946;6.140;2023-03-04T05:53:23;95388.78;;;5.00;75.11
21838;BME280;11081;45.946;6.140;2023-03-04T05:55:51;95393.25;;;5.06;74.05
21838;BME280;11081;45.946;6.140;2023-03-04T05:58:19;95390.38;;;5.15;74.36
21838;BME280;11081;45.946;6.140;2023-03-04T06:00:47;95393.13;;;5.14;73.39
21838;BME280;11081;45.946;6.140;2023-03-04T06:03:19;95390.75;;;5.12;73.54
21838;BME280;11081;45.946;6.140;2023-03-04T06:05:47;95396.47;;;5.08;74.54
21838;BME280;11081;45.946;6.140;2023-03-04T06:08:15;95398.69;;;5.11;73.98
21838;BME280;11081;45.946;6.140;2023-03-04T06:10:43;95390.66;;;5.06;73.36
21838;BME280;11081;45.946;6.140;2023-03-04T06:13:11;95388.34;;;5.11;74.04
21838;BME280;11081;45.946;6.140;2023-03-04T06:15:40;95388.06;;;5.20;73.78
21838;BME280;11081;45.946;6.140;2023-03-04T06:18:08;95390.47;;;5.22;73.37
21838;BME280;11081;45.946;6.140;2023-03-04T06:20:37;95394.03;;;5.21;72.74
21838;BME280;11081;45.946;6.140;2023-03-04T06:23:05;95396.09;;;5.11;73.26
21838;BME280;11081;45.946;6.140;2023-03-04T06:25:33;95403.47;;;5.14;73.31
21838;BME280;11081;45.946;6.140;2023-03-04T06:28:01;95407.06;;;5.13;73.67
21838;BME280;11081;45.946;6.140;2023-03-04T06:30:29;95401.72;;;5.00;73.68
21838;BME280;11081;45.946;6.140;2023-03-04T06:32:57;95406.00;;;4.93;73.77
21838;BME280;11081;45.946;6.140;2023-03-04T06:35:26;95407.97;;;4.90;73.11
21838;BME280;11081;45.946;6.140;2023-03-04T06:37:55;95410.03;;;4.80;73.29
21838;BME280;11081;45.946;6.140;2023-03-04T06:40:23;95407.44;;;4.80;73.57
21838;BME280;11081;45.946;6.140;2023-03-04T06:42:51;95408.69;;;4.84;73.31
21838;BME280;11081;45.946;6.140;2023-03-04T06:45:19;95418.75;;;4.94;72.90
21838;BME280;11081;45.946;6.140;2023-03-04T06:47:47;95416.34;;;4.93;73.46
21838;BME280;11081;45.946;6.140;2023-03-04T06:50:15;95423.47;;;4.90;72.79
21838;BME280;11081;45.946;6.140;2023-03-04T06:52:43;95423.47;;;4.90;72.23
21838;BME280;11081;45.946;6.140;2023-03-04T06:55:12;95419.09;;;4.91;72.21
21838;BME280;11081;45.946;6.140;2023-03-04T06:57:40;95417.94;;;4.94;72.48
21838;BME280;11081;45.946;6.140;2023-03-04T07:00:09;95422.69;;;4.90;71.99
21838;BME280;11081;45.946;6.140;2023-03-04T07:02:37;95427.03;;;4.89;72.79
21838;BME280;11081;45.946;6.140;2023-03-04T07:05:06;95436.31;;;4.99;72.74
21838;BME280;11081;45.946;6.140;2023-03-04T07:07:34;95432.66;;;5.08;72.14
21838;BME280;11081;45.946;6.140;2023-03-04T07:10:03;95441.75;;;5.18;71.92
21838;BME280;11081;45.946;6.140;2023-03-04T07:12:32;95440.25;;;5.24;71.00
21838;BME280;11081;45.946;6.140;2023-03-04T07:15:00;95441.03;;;5.25;71.48
21838;BME280;11081;45.946;6.140;2023-03-04T07:17:28;95441.94;;;5.17;71.37
21838;BME280;11081;45.946;6.140;2023-03-04T07:19:56;95443.72;;;5.16;71.24
21838;BME280;11081;45.946;6.140;2023-03-04T07:22:24;95445.31;;;5.17;71.08
21838;BME280;11081;45.946;6.140;2023-03-04T07:24:52;95447.72;;;5.19;70.36
21838;BME280;11081;45.946;6.140;2023-03-04T07:27:20;95455.03;;;5.30;71.22
21838;BME280;11081;45.946;6.140;2023-03-04T07:29:49;95445.66;;;5.29;71.03
21838;BME280;11081;45.946;6.140;2023-03-04T07:32:17;95450.38;;;5.40;70.89
21838;BME280;11081;45.946;6.140;2023-03-04T07:34:45;95454.00;;;5.61;71.17
21838;BME280;11081;45.946;6.140;2023-03-04T07:37:13;95448.34;;;5.72;71.10
21838;BME280;11081;45.946;6.140;2023-03-04T07:39:41;95454.78;;;5.76;71.05
21838;BME280;11081;45.946;6.140;2023-03-04T07:42:09;95452.09;;;5.84;71.10
21838;BME280;11081;45.946;6.140;2023-03-04T07:44:40;95446.53;;;5.87;71.13
21838;BME280;11081;45.946;6.140;2023-03-04T07:47:09;95458.88;;;5.85;70.81
21838;BME280;11081;45.946;6.140;2023-03-04T07:49:37;95460.47;;;5.86;71.82
21838;BME280;11081;45.946;6.140;2023-03-04T07:52:05;95464.66;;;5.87;72.60
21838;BME280;11081;45.946;6.140;2023-03-04T07:54:34;95458.88;;;5.85;72.64
21838;BME280;11081;45.946;6.140;2023-03-04T07:57:02;95467.63;;;5.84;72.96
21838;BME280;11081;45.946;6.140;2023-03-04T07:59:30;95464.38;;;5.82;72.45
21838;BME280;11081;45.946;6.140;2023-03-04T08:01:58;95468.94;;;5.80;72.41
21838;BME280;11081;45.946;6.140;2023-03-04T08:04:27;95463.59;;;5.81;71.36
21838;BME280;11081;45.946;6.140;2023-03-04T08:06:55;95480.81;;;5.89;71.22
21838;BME280;11081;45.946;6.140;2023-03-04T08:09:23;95475.72;;;5.81;70.31
21838;BME280;11081;45.946;6.140;2023-03-04T08:11:51;95483.16;;;5.84;70.23
21838;BME280;11081;45.946;6.140;2023-03-04T08:14:19;95482.09;;;5.93;70.32
21838;BME280;11081;45.946;6.140;2023-03-04T08:16:47;95484.13;;;5.98;70.29
21838;BME280;11081;45.946;6.140;2023-03-04T08:19:15;95477.38;;;6.03;70.12
21838;BME280;11081;45.946;6.140;2023-03-04T08:21:44;95482.56;;;6.03;69.77
21838;BME280;11081;45.946;6.140;2023-03-04T08:24:12;95479.25;;;6.09;70.36
21838;BME280;11081;45.946;6.140;2023-03-04T08:26:42;95482.72;;;6.17;69.84
21838;BME280;11081;45.946;6.140;2023-03-04T08:29:13;95485.19;;;6.25;70.01
21838;BME280;11081;45.946;6.140;2023-03-04T08:31:41;95493.59;;;6.27;70.21
21838;BME280;11081;45.946;6.140;2023-03-04T08:34:15;95492.00;;;6.26;70.24
21838;BME280;11081;45.946;6.140;2023-03-04T08:36:44;95495.91;;;6.22;69.88
21838;BME280;11081;45.946;6.140;2023-03-04T08:39:14;95489.13;;;6.21;70.43
21838;BME280;11081;45.946;6.140;2023-03-04T08:41:44;95494.31;;;6.21;70.25
21838;BME280;11081;45.946;6.140;2023-03-04T08:44:12;95489.56;;;6.24;69.58
21838;BME280;11081;45.946;6.140;2023-03-04T08:46:41;95491.25;;;6.32;69.55
21838;BME280;11081;45.946;6.140;2023-03-04T08:49:10;95496.06;;;6.35;68.82
21838;BME280;11081;45.946;6.140;2023-03-04T08:51:38;95492.09;;;6.39;69.15
21838;BME280;11081;45.946;6.140;2023-03-04T08:54:08;95499.31;;;6.43;68.50
21838;BME280;11081;45.946;6.140;2023-03-04T08:56:36;95494.00;;;6.52;68.87
21838;BME280;11081;45.946;6.140;2023-03-04T08:59:03;95498.63;;;6.56;68.50
21838;BME280;11081;45.946;6.140;2023-03-04T09:01:31;95499.25;;;6.37;68.02
21838;BME280;11081;45.946;6.140;2023-03-04T09:03:59;95499.25;;;6.37;68.20
21838;BME280;11081;45.946;6.140;2023-03-04T09:06:27;95498.78;;;6.48;68.06
21838;BME280;11081;45.946;6.140;2023-03-04T09:08:55;95491.84;;;6.55;68.65
21838;BME280;11081;45.946;6.140;2023-03-04T09:11:25;95488.06;;;6.58;68.68
21838;BME280;11081;45.946;6.140;2023-03-04T09:13:52;95499.84;;;6.60;68.06
21838;BME280;11081;45.946;6.140;2023-03-04T09:16:21;95491.00;;;6.48;68.99
21838;BME280;11081;45.946;6.140;2023-03-04T09:18:49;95498.22;;;6.53;69.17
21838;BME280;11081;45.946;6.140;2023-03-04T09:21:17;95504.31;;;6.66;68.40
21838;BME280;11081;45.946;6.140;2023-03-04T09:23:45;95499.97;;;6.73;68.88
21838;BME280;11081;45.946;6.140;2023-03-04T09:26:14;95502.41;;;6.82;68.40
21838;BME280;11081;45.946;6.140;2023-03-04T09:28:44;95498.44;;;6.86;67.70
21838;BME280;11081;45.946;6.140;2023-03-04T09:31:12;95501.91;;;6.93;67.80
21838;BME280;11081;45.946;6.140;2023-03-04T09:33:41;95492.16;;;6.95;68.17
21838;BME280;11081;45.946;6.140;2023-03-04T09:36:10;95496.56;;;7.01;68.09
21838;BME280;11081;45.946;6.140;2023-03-04T09:38:38;95500.16;;;7.00;67.95
21838;BME280;11081;45.946;6.140;2023-03-04T09:41:08;95496.94;;;6.98;67.84
21838;BME280;11081;45.946;6.140;2023-03-04T09:43:38;95499.56;;;6.98;67.45
21838;BME280;11081;45.946;6.140;2023-03-04T09:46:11;95501.75;;;7.01;67.90
21838;BME280;11081;45.946;6.140;2023-03-04T09:48:43;95504.97;;;7.03;67.63
21838;BME280;11081;45.946;6.140;2023-03-04T09:51:19;95491.00;;;7.04;67.85
21838;BME280;11081;45.946;6.140;2023-03-04T09:53:55;95494.19;;;7.06;67.13
21838;BME280;11081;45.946;6.140;2023-03-04T09:56:26;95498.59;;;7.06;67.62
21838;BME280;11081;45.946;6.140;2023-03-04T09:59:01;95491.00;;;7.04;67.32
21838;BME280;11081;45.946;6.140;2023-03-04T10:01:35;95500.53;;;6.97;67.35
21838;BME280;11081;45.946;6.140;2023-03-04T10:04:10;95493.94;;;6.66;67.77
21838;BME280;11081;45.946;6.140;2023-03-04T10:06:40;95485.59;;;6.71;68.25
21838;BME280;11081;45.946;6.140;2023-03-04T10:09:12;95484.88;;;6.84;67.26
21838;BME280;11081;45.946;6.140;2023-03-04T10:11:43;95488.47;;;6.83;67.00
21838;BME280;11081;45.946;6.140;2023-03-04T10:14:36;95482.88;;;6.86;67.10
21838;BME280;11081;45.946;6.140;2023-03-04T10:17:11;95491.66;;;6.85;66.66
21838;BME280;11081;45.946;6.140;2023-03-04T10:19:50;95479.25;;;6.80;67.16
21838;BME280;11081;45.946;6.140;2023-03-04T10:22:24;95482.16;;;6.92;66.84
21838;BME280;11081;45.946;6.140;2023-03-04T10:24:57;95476.69;;;7.08;66.58
21838;BME280;11081;45.946;6.140;2023-03-04T10:27:25;95480.31;;;7.20;66.04
21838;BME280;11081;45.946;6.140;2023-03-04T10:29:57;95470.75;;;7.27;66.20
21838;BME280;11081;45.946;6.140;2023-03-04T10:32:28;95473.63;;;7.32;65.84
21838;BME280;11081;45.946;6.140;2023-03-04T10:34:56;95465.84;;;7.39;65.57
21838;BME280;11081;45.946;6.140;2023-03-04T10:37:42;95468.44;;;7.39;66.09
21838;BME280;11081;45.946;6.140;2023-03-04T10:40:18;95461.16;;;7.21;64.64
21838;BME280;11081;45.946;6.140;2023-03-04T10:42:48;95466.72;;;7.12;65.98
21838;BME280;11081;45.946;6.140;2023-03-04T10:45:21;95462.06;;;7.07;65.25
21838;BME280;11081;45.946;6.140;2023-03-04T10:47:55;95467.13;;;7.15;65.04
21838;BME280;11081;45.946;6.140;2023-03-04T10:50:26;95470.16;;;7.25;65.00
21838;BME280;11081;45.946;6.140;2023-03-04T10:52:55;95463.34;;;7.18;64.04
21838;BME280;11081;45.946;6.140;2023-03-04T10:55:26;95460.63;;;6.98;64.76
21838;BME280;11081;45.946;6.140;2023-03-04T10:57:55;95467.50;;;7.12;64.73
21838;BME280;11081;45.946;6.140;2023-03-04T11:00:30;95458.34;;;7.16;64.17
21838;BME280;11081;45.946;6.140;2023-03-04T11:03:24;95453.97;;;7.23;63.44
21838;BME280;11081;45.946;6.140;2023-03-04T11:06:08;95461.97;;;7.28;63.90
21838;BME280;11081;45.946;6.140;2023-03-04T11:08:38;95462.84;;;7.36;64.04
21838;BME280;11081;45.946;6.140;2023-03-04T11:11:21;95458.84;;;7.33;63.53
21838;BME280;11081;45.946;6.140;2023-03-04T11:13:51;95464.22;;;7.31;64.22
21838;BME280;11081;45.946;6.140;2023-03-04T11:16:25;95457.44;;;7.30;64.69
21838;BME280;11081;45.946;6.140;2023-03-04T11:18:57;95455.66;;;7.38;64.60
21838;BME280;11081;45.946;6.140;2023-03-04T11:21:29;95452.50;;;7.49;64.47
21838;BME280;11081;45.946;6.140;2023-03-04T11:24:00;95458.94;;;7.53;64.39
21838;BME280;11081;45.946;6.140;2023-03-04T11:26:30;95450.13;;;7.54;64.26
21838;BME280;11081;45.946;6.140;2023-03-04T11:29:05;95449.97;;;7.62;63.68
21838;BME280;11081;45.946;6.140;2023-03-04T11:31:38;95446.97;;;7.65;63.56
21838;BME280;11081;45.946;6.140;2023-03-04T11:34:14;95441.00;;;7.71;62.98
21838;BME280;11081;45.946;6.140;2023-03-04T11:36:51;95433.81;;;7.73;63.19
21838;BME280;11081;45.946;6.140;2023-03-04T11:39:28;95426.66;;;7.82;63.80
21838;BME280;11081;45.946;6.140;2023-03-04T11:42:00;95426.63;;;7.75;63.10
21838;BME280;11081;45.946;6.140;2023-03-04T11:44:29;95429.78;;;7.64;63.63
21838;BME280;11081;45.946;6.140;2023-03-04T11:50:30;95427.69;;;7.40;63.32
21838;BME280;11081;45.946;6.140;2023-03-04T11:53:19;95417.97;;;7.55;63.71
21838;BME280;11081;45.946;6.140;2023-03-04T11:55:57;95416.63;;;7.72;63.50
21838;BME280;11081;45.946;6.140;2023-03-04T12:01:38;95408.69;;;7.93;63.10
21838;BME280;11081;45.946;6.140;2023-03-04T12:04:23;95416.88;;;8.04;62.14
21838;BME280;11081;45.946;6.140;2023-03-04T12:07:08;95412.69;;;8.09;62.03
21838;BME280;11081;45.946;6.140;2023-03-04T12:09:43;95413.13;;;8.13;62.71
21838;BME280;11081;45.946;6.140;2023-03-04T12:12:26;95407.94;;;8.13;62.73
21838;BME280;11081;45.946;6.140;2023-03-04T12:15:09;95417.09;;;8.02;61.92
21838;BME280;11081;45.946;6.140;2023-03-04T12:17:55;95402.25;;;7.89;61.83
21838;BME280;11081;45.946;6.140;2023-03-04T12:20:34;95403.53;;;8.13;62.24
21838;BME280;11081;45.946;6.140;2023-03-04T12:23:18;95395.56;;;8.41;61.80
21838;BME280;11081;45.946;6.140;2023-03-04T12:25:56;95388.72;;;8.67;62.17
21838;BME280;11081;45.946;6.140;2023-03-04T12:28:43;95387.53;;;8.76;60.84
21838;BME280;11081;45.946;6.140;2023-03-04T12:31:29;95386.31;;;8.72;60.74
21838;BME280;11081;45.946;6.140;2023-03-04T12:34:12;95376.69;;;8.79;60.61
21838;BME280;11081;45.946;6.140;2023-03-04T12:36:51;95380.84;;;8.93;60.88
21838;BME280;11081;45.946;6.140;2023-03-04T12:39:29;95374.34;;;8.58;59.63
21838;BME280;11081;45.946;6.140;2023-03-04T12:42:06;95367.50;;;8.70;60.70
21838;BME280;11081;45.946;6.140;2023-03-04T12:44:41;95360.34;;;8.45;60.28
21838;BME280;11081;45.946;6.140;2023-03-04T12:47:22;95356.31;;;8.63;60.39
21838;BME280;11081;45.946;6.140;2023-03-04T12:50:13;95357.03;;;8.96;60.07
21838;BME280;11081;45.946;6.140;2023-03-04T12:52:53;95353.81;;;8.94;59.31
21838;BME280;11081;45.946;6.140;2023-03-04T12:55:31;95352.63;;;8.90;60.47
21838;BME280;11081;45.946;6.140;2023-03-04T12:58:02;95343.03;;;8.91;60.46
21838;BME280;11081;45.946;6.140;2023-03-04T13:00:38;95343.88;;;8.78;60.04
21838;BME280;11081;45.946;6.140;2023-03-04T13:03:11;95346.66;;;8.83;60.50
21838;BME280;11081;45.946;6.140;2023-03-04T13:05:52;95336.09;;;8.51;60.70
21838;BME280;11081;45.946;6.140;2023-03-04T13:08:32;95337.47;;;8.74;61.11
21838;BME280;11081;45.946;6.140;2023-03-04T13:11:39;95331.00;;;8.96;61.54
21838;BME280;11081;45.946;6.140;2023-03-04T13:14:29;95318.47;;;9.25;60.10
21838;BME280;11081;45.946;6.140;2023-03-04T13:16:58;95314.19;;;9.37;59.87
21838;BME280;11081;45.946;6.140;2023-03-04T13:19:48;95306.22;;;9.32;58.15
21838;BME280;11081;45.946;6.140;2023-03-04T13:22:41;95309.59;;;9.39;59.42
21838;BME280;11081;45.946;6.140;2023-03-04T13:25:38;95300.41;;;9.30;59.54
21838;BME280;11081;45.946;6.140;2023-03-04T13:28:23;95298.81;;;9.29;60.09
21838;BME280;11081;45.946;6.140;2023-03-04T13:31:16;95296.31;;;9.47;59.28
21838;BME280;11081;45.946;6.140;2023-03-04T13:36:52;95293.16;;;9.95;59.72
21838;BME280;11081;45.946;6.140;2023-03-04T13:39:29;95296.34;;;9.97;58.66